Time;durP1;ratioP1;P1;durP2;ratioP2;P2;SDS_P1;SDS_P2;PMS_P1;PMS_P2;Temp;Humidity;BMP_temperature;BMP_pressure;BME280_temperature;BME280_humidity;BME280_pressure;Samples;Min_cycle;Max_cycle;Signal;HPM_P1;HPM_P2
2023/01/02 00:01:41;;;;;;;1.85;1.75;;;;;;;;;;5031020;28;20017;-75
2023/01/02 00:04:06;;;;;;;1.15;1.15;;;;;;;;;;5029899;28;20028;-78
2023/01/02 00:06:34;;;;;;;1.50;1.40;;;;;;;;;;5030085;28;20119;-79
2023/01/02 00:09:01;;;;;;;3.38;3.10;;;;;;;;;;5013718;28;20080;-78
2023/01/02 00:11:27;;;;;;;0.30;0.30;;;;;;;;;;5031038;28;20043;-78
2023/01/02 00:13:52;;;;;;;1.10;1.10;;;;;;;;;;5029730;28;20098;-79
2023/01/02 00:16:17;;;;;;;10.63;7.38;;;;;;;;;;5030307;28;20027;-74
2023/01/02 00:18:43;;;;;;;1.00;1.00;;;;;;;;;;5029146;28;20029;-75
2023/01/02 00:21:08;;;;;;;2.08;1.98;;;;;;;;;;5030501;28;20025;-75
2023/01/02 00:23:34;;;;;;;0.47;0.47;;;;;;;;;;5030444;28;20061;-75
2023/01/02 00:25:59;;;;;;;5.20;4.90;;;;;;;;;;5014163;28;20088;-75
2023/01/02 00:28:25;;;;;;;3.97;3.67;;;;;;;;;;5031875;28;20130;-75
2023/01/02 00:30:50;;;;;;;7.28;6.75;;;;;;;;;;5016546;28;20029;-75
2023/01/02 00:33:16;;;;;;;1.23;1.17;;;;;;;;;;5016920;28;20021;-76
2023/01/02 00:35:41;;;;;;;1.00;0.98;;;;;;;;;;5016524;28;20034;-76
2023/01/02 00:38:07;;;;;;;2.80;2.60;;;;;;;;;;5034498;28;20052;-77
2023/01/02 00:40:32;;;;;;;3.22;2.72;;;;;;;;;;5034307;28;20361;-77
2023/01/02 00:42:58;;;;;;;1.75;1.65;;;;;;;;;;5016656;28;20023;-79
2023/01/02 00:45:23;;;;;;;0.88;0.88;;;;;;;;;;5016375;28;20009;-77
2023/01/02 00:47:49;;;;;;;0.88;0.88;;;;;;;;;;5033971;28;20033;-77
2023/01/02 00:50:14;;;;;;;1.48;1.38;;;;;;;;;;5034111;28;20469;-77
2023/01/02 00:52:40;;;;;;;2.92;2.72;;;;;;;;;;5034064;28;20517;-77
2023/01/02 00:55:05;;;;;;;0.20;0.20;;;;;;;;;;5033240;28;20025;-77
2023/01/02 00:57:31;;;;;;;6.68;6.03;;;;;;;;;;5033787;28;20030;-78
2023/01/02 00:59:56;;;;;;;0.55;0.55;;;;;;;;;;5033692;28;20071;-77
2023/01/02 01:02:22;;;;;;;0.38;0.38;;;;;;;;;;5033896;28;20037;-76
2023/01/02 01:04:47;;;;;;;0.50;0.50;;;;;;;;;;5034323;28;20029;-78
2023/01/02 01:07:12;;;;;;;2.10;2.00;;;;;;;;;;5033772;28;20033;-77
2023/01/02 01:09:38;;;;;;;1.38;1.27;;;;;;;;;;5033768;28;20342;-77
2023/01/02 01:12:03;;;;;;;1.00;1.00;;;;;;;;;;5033704;28;20095;-78
2023/01/02 01:14:29;;;;;;;8.82;3.88;;;;;;;;;;5015557;28;20446;-77
2023/01/02 01:16:54;;;;;;;2.92;2.75;;;;;;;;;;5033665;28;20013;-77
2023/01/02 01:19:20;;;;;;;0.60;0.60;;;;;;;;;;5033592;28;20029;-77
2023/01/02 01:21:45;;;;;;;1.88;1.75;;;;;;;;;;5033952;28;20373;-76
2023/01/02 01:24:11;;;;;;;0.90;0.75;;;;;;;;;;5033485;28;20034;-77
2023/01/02 01:26:36;;;;;;;2.05;1.90;;;;;;;;;;5015899;28;20124;-76
2023/01/02 01:29:01;;;;;;;2.95;2.75;;;;;;;;;;5033506;28;20033;-76
2023/01/02 01:31:27;;;;;;;2.17;2.03;;;;;;;;;;5031459;28;20018;-76
2023/01/02 01:33:52;;;;;;;0.50;0.50;;;;;;;;;;5033630;28;20025;-77
2023/01/02 01:36:19;;;;;;;1.75;1.65;;;;;;;;;;5033608;28;20037;-77
2023/01/02 01:38:45;;;;;;;1.25;1.15;;;;;;;;;;5033116;28;20392;-76
2023/01/02 01:41:21;;;;;;;0.20;0.20;;;;;;;;;;5015755;28;20021;-78
2023/01/02 01:43:50;;;;;;;3.75;3.30;;;;;;;;;;5015479;28;20029;-77
2023/01/02 01:46:15;;;;;;;0.30;0.30;;;;;;;;;;5033545;28;20379;-77
2023/01/02 01:48:41;;;;;;;0.75;0.75;;;;;;;;;;5033702;28;20025;-76
2023/01/02 01:51:06;;;;;;;0.60;0.60;;;;;;;;;;5015644;28;20373;-76
2023/01/02 01:53:33;;;;;;;0.30;0.30;;;;;;;;;;5032245;28;20461;-76
2023/01/02 01:56:01;;;;;;;1.00;1.00;;;;;;;;;;5031900;28;20036;-76
2023/01/02 01:58:35;;;;;;;0.60;0.60;;;;;;;;;;5032929;28;20037;-76
2023/01/02 02:01:01;;;;;;;0.70;0.70;;;;;;;;;;5019071;28;20369;-76
2023/01/02 02:03:29;;;;;;;0.20;0.20;;;;;;;;;;5051725;28;20116;-76
2023/01/02 02:05:56;;;;;;;0.50;0.50;;;;;;;;;;5018652;28;20028;-77
2023/01/02 02:08:24;;;;;;;2.05;1.95;;;;;;;;;;5052841;28;20079;-77
2023/01/02 02:10:50;;;;;;;1.75;1.58;;;;;;;;;;5035039;28;20025;-77
2023/01/02 02:13:15;;;;;;;1.02;1.02;;;;;;;;;;5034869;28;20029;-77
2023/01/02 02:15:53;;;;;;;0.22;0.22;;;;;;;;;;5034987;28;20476;-77
2023/01/02 02:18:35;;;;;;;1.02;1.02;;;;;;;;;;5051428;28;20025;-77
2023/01/02 02:21:16;;;;;;;1.65;1.55;;;;;;;;;;5018552;28;20376;-77
2023/01/02 02:23:51;;;;;;;0.73;0.73;;;;;;;;;;5052572;28;20052;-77
2023/01/02 02:26:49;;;;;;;0.95;0.95;;;;;;;;;;5052724;28;20480;-77
2023/01/02 02:29:41;;;;;;;0.50;0.50;;;;;;;;;;5002629;28;20087;-77
2023/01/02 02:32:15;;;;;;;1.50;1.40;;;;;;;;;;5034203;28;20514;-77
2023/01/02 02:34:47;;;;;;;0.20;0.20;;;;;;;;;;5018429;28;20519;-77
2023/01/02 02:37:48;;;;;;;0.30;0.30;;;;;;;;;;5034671;28;20055;-76
2023/01/02 02:40:29;;;;;;;1.42;1.20;;;;;;;;;;4979012;28;20085;-81
2023/01/02 02:43:14;;;;;;;0.52;0.52;;;;;;;;;;5030906;28;20442;-77
2023/01/02 02:45:51;;;;;;;1.50;1.35;;;;;;;;;;5056373;28;20032;-78
2023/01/02 02:48:22;;;;;;;1.95;1.85;;;;;;;;;;5056399;28;20025;-78
2023/01/02 02:50:51;;;;;;;0.20;0.20;;;;;;;;;;5056367;28;20017;-80
2023/01/02 02:53:17;;;;;;;2.70;0.85;;;;;;;;;;5022056;28;20056;-78
2023/01/02 02:55:51;;;;;;;0.90;0.90;;;;;;;;;;5043453;28;20442;-78
2023/01/02 02:58:17;;;;;;;1.25;1.15;;;;;;;;;;5024439;28;20476;-78
2023/01/02 03:00:43;;;;;;;1.05;1.05;;;;;;;;;;5016650;28;20022;-78
2023/01/02 03:03:14;;;;;;;0.65;0.65;;;;;;;;;;5040334;28;20144;-78
2023/01/02 03:05:41;;;;;;;0.57;0.57;;;;;;;;;;5041494;28;20029;-78
2023/01/02 03:08:10;;;;;;;0.50;0.50;;;;;;;;;;5037666;28;20063;-80
2023/01/02 03:10:38;;;;;;;0.47;0.47;;;;;;;;;;5037072;28;20032;-80
2023/01/02 03:13:06;;;;;;;0.30;0.30;;;;;;;;;;5036164;28;20025;-80
2023/01/02 03:15:58;;;;;;;0.10;0.10;;;;;;;;;;5035992;28;20068;-79
2023/01/02 03:18:26;;;;;;;2.55;2.45;;;;;;;;;;5035906;28;20026;-80
2023/01/02 03:20:58;;;;;;;1.23;1.17;;;;;;;;;;5035900;28;20040;-77
2023/01/02 03:23:24;;;;;;;0.20;0.20;;;;;;;;;;5034598;28;20040;-76
2023/01/02 03:25:50;;;;;;;0.20;0.20;;;;;;;;;;5034398;28;20070;-76
2023/01/02 03:28:18;;;;;;;0.45;0.45;;;;;;;;;;5035569;28;20051;-76
2023/01/02 03:30:44;;;;;;;0.10;0.10;;;;;;;;;;5034832;28;20025;-76
2023/01/02 03:33:12;;;;;;;0.60;0.60;;;;;;;;;;5035636;28;20022;-80
2023/01/02 03:35:58;;;;;;;2.25;2.08;;;;;;;;;;5035794;28;20056;-79
2023/01/02 03:38:29;;;;;;;0.20;0.20;;;;;;;;;;5034184;28;20120;-79
2023/01/02 03:41:05;;;;;;;0.50;0.50;;;;;;;;;;5033995;28;20022;-79
2023/01/02 03:43:34;;;;;;;0.25;0.25;;;;;;;;;;5035484;28;20029;-76
2023/01/02 03:46:07;;;;;;;16.45;4.65;;;;;;;;;;5034133;28;20021;-76
2023/01/02 03:48:32;;;;;;;1.63;1.52;;;;;;;;;;5034167;28;20479;-76
2023/01/02 03:50:59;;;;;;;0.20;0.20;;;;;;;;;;5035372;28;20025;-77
2023/01/02 03:53:25;;;;;;;2.75;2.55;;;;;;;;;;5034443;28;20075;-76
2023/01/02 03:55:54;;;;;;;0.28;0.28;;;;;;;;;;5034509;28;20365;-76
2023/01/02 03:58:28;;;;;;;0.77;0.77;;;;;;;;;;5034958;28;20099;-76
2023/01/02 04:01:03;;;;;;;0.22;0.22;;;;;;;;;;5035379;28;20022;-76
2023/01/02 04:03:40;;;;;;;0.20;0.20;;;;;;;;;;5041607;28;20025;-76
2023/01/02 04:06:17;;;;;;;0.50;0.50;;;;;;;;;;5033371;28;20017;-76
2023/01/02 04:09:06;;;;;;;0.35;0.35;;;;;;;;;;5051203;28;20100;-76
2023/01/02 04:11:32;;;;;;;0.20;0.20;;;;;;;;;;5033268;28;20110;-76
2023/01/02 04:13:59;;;;;;;0.77;0.77;;;;;;;;;;5051245;28;20419;-76
2023/01/02 04:16:27;;;;;;;0.22;0.22;;;;;;;;;;5032740;28;20025;-76
2023/01/02 04:18:57;;;;;;;0.20;0.20;;;;;;;;;;5050960;28;20453;-76
2023/01/02 04:21:25;;;;;;;0.30;0.30;;;;;;;;;;5051007;28;20017;-76
2023/01/02 04:23:57;;;;;;;0.40;0.40;;;;;;;;;;5032647;28;20468;-75
2023/01/02 04:26:42;;;;;;;0.43;0.43;;;;;;;;;;5050821;28;20039;-75
2023/01/02 04:29:08;;;;;;;0.20;0.20;;;;;;;;;;5032848;28;20094;-75
2023/01/02 04:31:40;;;;;;;0.20;0.20;;;;;;;;;;5050738;28;20083;-75
2023/01/02 04:34:08;;;;;;;0.10;0.10;;;;;;;;;;5033110;28;20193;-77
2023/01/02 04:36:37;;;;;;;0.22;0.22;;;;;;;;;;5050629;28;20029;-77
2023/01/02 04:39:02;;;;;;;0.20;0.20;;;;;;;;;;5032695;28;20543;-77
2023/01/02 04:41:27;;;;;;;1.52;1.45;;;;;;;;;;5050126;28;20159;-77
2023/01/02 04:43:56;;;;;;;0.40;0.40;;;;;;;;;;5016257;28;20036;-77
2023/01/02 04:46:22;;;;;;;1.42;1.35;;;;;;;;;;5032556;28;20040;-76
2023/01/02 04:48:48;;;;;;;6.70;2.40;;;;;;;;;;5050782;28;20033;-76
2023/01/02 04:51:13;;;;;;;1.00;1.00;;;;;;;;;;5050269;28;20063;-75
2023/01/02 04:53:39;;;;;;;0.30;0.30;;;;;;;;;;5041949;28;20029;-76
2023/01/02 04:56:05;;;;;;;0.25;0.25;;;;;;;;;;5012479;28;20058;-75
2023/01/02 04:58:30;;;;;;;0.40;0.40;;;;;;;;;;5028729;28;20022;-76
2023/01/02 05:00:56;;;;;;;0.25;0.25;;;;;;;;;;5029136;28;20029;-75
2023/01/02 05:03:21;;;;;;;0.20;0.20;;;;;;;;;;5030430;28;20037;-75
2023/01/02 05:05:46;;;;;;;0.20;0.20;;;;;;;;;;5029065;28;20021;-75
2023/01/02 05:08:12;;;;;;;0.30;0.30;;;;;;;;;;5044229;28;20037;-75
2023/01/02 05:10:37;;;;;;;4.53;4.15;;;;;;;;;;5042748;28;20457;-75
2023/01/02 05:13:03;;;;;;;0.20;0.20;;;;;;;;;;5030020;28;20037;-76
2023/01/02 05:15:29;;;;;;;0.20;0.20;;;;;;;;;;5030040;28;20116;-75
2023/01/02 05:17:55;;;;;;;1.55;1.45;;;;;;;;;;5029756;28;20124;-75
2023/01/02 05:20:21;;;;;;;1.25;1.20;;;;;;;;;;5029560;28;20067;-75
2023/01/02 05:25:31;;;;;;;0.20;0.20;;;;;;;;;;5029729;28;20457;-76
2023/01/02 05:27:57;;;;;;;0.40;0.40;;;;;;;;;;5011837;28;20029;-76
2023/01/02 05:30:24;;;;;;;0.20;0.20;;;;;;;;;;5008844;28;20025;-77
2023/01/02 05:32:49;;;;;;;2.08;1.98;;;;;;;;;;5016789;28;20025;-76
2023/01/02 05:35:15;;;;;;;0.10;0.10;;;;;;;;;;5016548;28;20044;-75
2023/01/02 05:37:40;;;;;;;0.20;0.20;;;;;;;;;;5012770;28;20050;-75
2023/01/02 05:40:06;;;;;;;0.43;0.43;;;;;;;;;;5049380;28;20269;-76
2023/01/02 05:42:31;;;;;;;0.20;0.20;;;;;;;;;;5031553;28;20036;-76
2023/01/02 05:44:57;;;;;;;0.20;0.20;;;;;;;;;;5037239;28;20025;-76
2023/01/02 05:47:22;;;;;;;0.10;0.10;;;;;;;;;;4994621;28;20485;-76
2023/01/02 05:49:48;;;;;;;0.20;0.20;;;;;;;;;;5029372;28;20405;-76
2023/01/02 05:52:13;;;;;;;0.30;0.30;;;;;;;;;;5029023;28;20036;-76
2023/01/02 05:54:38;;;;;;;0.30;0.30;;;;;;;;;;5029234;28;20017;-75
2023/01/02 05:57:04;;;;;;;0.20;0.20;;;;;;;;;;5011826;28;20037;-74
2023/01/02 05:59:29;;;;;;;2.45;2.25;;;;;;;;;;5029516;28;20033;-74
2023/01/02 06:01:55;;;;;;;0.35;0.35;;;;;;;;;;5028642;28;20025;-75
2023/01/02 06:04:20;;;;;;;2.88;2.45;;;;;;;;;;5028984;28;20109;-76
2023/01/02 06:06:46;;;;;;;0.10;0.10;;;;;;;;;;5028929;28;20037;-76
2023/01/02 06:09:12;;;;;;;0.20;0.20;;;;;;;;;;5011477;28;20209;-75
2023/01/02 06:11:38;;;;;;;1.35;1.23;;;;;;;;;;4992930;28;20068;-78
2023/01/02 06:14:03;;;;;;;0.35;0.35;;;;;;;;;;5032698;28;20033;-75
2023/01/02 06:16:29;;;;;;;0.20;0.20;;;;;;;;;;5029220;28;20029;-77
2023/01/02 06:18:54;;;;;;;0.10;0.10;;;;;;;;;;5035416;28;20039;-76
2023/01/02 06:21:20;;;;;;;0.17;0.17;;;;;;;;;;5042080;28;20080;-78
2023/01/02 06:23:46;;;;;;;0.20;0.20;;;;;;;;;;5032290;28;20033;-81
2023/01/02 06:26:12;;;;;;;0.95;0.95;;;;;;;;;;5031917;28;20528;-78
2023/01/02 06:28:38;;;;;;;0.70;0.70;;;;;;;;;;5033318;28;20053;-77
2023/01/02 06:31:05;;;;;;;0.10;0.10;;;;;;;;;;5031825;28;20065;-77
2023/01/02 06:33:30;;;;;;;0.35;0.35;;;;;;;;;;4998691;28;20053;-77
2023/01/02 06:35:59;;;;;;;0.55;0.55;;;;;;;;;;5032887;28;20402;-77
2023/01/02 06:38:25;;;;;;;0.13;0.13;;;;;;;;;;5014861;28;20059;-75
2023/01/02 06:40:51;;;;;;;0.20;0.20;;;;;;;;;;5032572;28;20018;-78
2023/01/02 06:43:17;;;;;;;3.83;1.00;;;;;;;;;;5014743;28;20048;-77
2023/01/02 06:45:42;;;;;;;6.28;2.70;;;;;;;;;;5032003;28;20877;-77
2023/01/02 06:48:08;;;;;;;0.50;0.50;;;;;;;;;;5014943;28;20467;-78
2023/01/02 06:50:33;;;;;;;0.10;0.10;;;;;;;;;;5032320;28;20026;-78
2023/01/02 06:52:58;;;;;;;0.35;0.35;;;;;;;;;;5014708;28;20033;-78
2023/01/02 06:55:24;;;;;;;0.10;0.10;;;;;;;;;;5033046;28;20258;-78
2023/01/02 06:57:49;;;;;;;1.85;1.75;;;;;;;;;;5030267;28;20036;-79
2023/01/02 07:00:15;;;;;;;0.20;0.20;;;;;;;;;;5014246;28;20018;-78
2023/01/02 07:02:40;;;;;;;0.10;0.10;;;;;;;;;;5014409;28;20400;-78
2023/01/02 07:05:06;;;;;;;4.53;4.22;;;;;;;;;;5014154;28;20028;-79
2023/01/02 07:07:32;;;;;;;1.40;1.40;;;;;;;;;;5032179;28;20038;-80
2023/01/02 07:09:57;;;;;;;0.88;0.88;;;;;;;;;;5031725;28;20040;-81
2023/01/02 07:12:22;;;;;;;0.20;0.20;;;;;;;;;;5013999;28;20029;-80
2023/01/02 07:14:48;;;;;;;0.20;0.20;;;;;;;;;;5032352;28;20092;-76
2023/01/02 07:17:13;;;;;;;0.30;0.30;;;;;;;;;;5036640;28;20053;-75
2023/01/02 07:19:39;;;;;;;0.10;0.10;;;;;;;;;;5052105;28;20104;-76
2023/01/02 07:22:04;;;;;;;0.98;0.95;;;;;;;;;;5051675;28;20136;-76
2023/01/02 07:24:29;;;;;;;0.20;0.20;;;;;;;;;;5051518;28;20100;-75
2023/01/02 07:26:55;;;;;;;1.77;1.65;;;;;;;;;;5052373;28;20452;-76
2023/01/02 07:29:20;;;;;;;1.02;1.00;;;;;;;;;;5050543;28;20460;-76
2023/01/02 07:31:46;;;;;;;0.20;0.20;;;;;;;;;;5042329;28;20075;-76
2023/01/02 07:34:11;;;;;;;0.10;0.10;;;;;;;;;;5031474;28;20487;-76
2023/01/02 07:36:37;;;;;;;0.10;0.10;;;;;;;;;;5013943;28;20035;-76
2023/01/02 07:39:02;;;;;;;0.68;0.68;;;;;;;;;;5031509;28;20488;-76
2023/01/02 07:41:27;;;;;;;0.10;0.10;;;;;;;;;;5030645;28;20013;-76
2023/01/02 07:43:55;;;;;;;1.05;1.05;;;;;;;;;;5017822;28;20595;-76
2023/01/02 07:46:21;;;;;;;0.52;0.52;;;;;;;;;;5037084;28;20564;-76
2023/01/02 07:48:46;;;;;;;0.15;0.15;;;;;;;;;;5030724;28;20097;-76
2023/01/02 07:51:13;;;;;;;1.10;1.10;;;;;;;;;;5013919;28;20449;-76
2023/01/02 07:53:40;;;;;;;0.40;0.40;;;;;;;;;;5031558;28;20495;-76
2023/01/02 07:56:06;;;;;;;0.65;0.65;;;;;;;;;;5031123;28;20112;-80
2023/01/02 07:58:31;;;;;;;2.28;1.23;;;;;;;;;;5030932;28;20093;-77
2023/01/02 08:00:57;;;;;;;0.30;0.30;;;;;;;;;;5030819;28;20022;-77
2023/01/02 08:03:23;;;;;;;0.10;0.10;;;;;;;;;;5030716;28;20445;-78
2023/01/02 08:05:48;;;;;;;17.05;10.43;;;;;;;;;;4996296;28;20025;-77
2023/01/02 08:08:14;;;;;;;3.05;2.60;;;;;;;;;;5031244;28;20520;-77
2023/01/02 08:10:39;;;;;;;3.20;2.97;;;;;;;;;;5031646;28;20052;-79
2023/01/02 08:13:05;;;;;;;0.45;0.45;;;;;;;;;;5031163;28;20121;-80
2023/01/02 08:15:30;;;;;;;0.38;0.38;;;;;;;;;;5030657;28;20048;-79
2023/01/02 08:17:56;;;;;;;0.40;0.40;;;;;;;;;;5031002;28;20029;-77
2023/01/02 08:20:22;;;;;;;0.17;0.17;;;;;;;;;;5011222;28;20504;-74
2023/01/02 08:22:47;;;;;;;3.45;3.13;;;;;;;;;;5030340;28;20109;-81
2023/01/02 08:25:14;;;;;;;1.92;1.83;;;;;;;;;;4993721;28;20037;-83
2023/01/02 08:27:40;;;;;;;4.72;4.30;;;;;;;;;;5010474;28;20026;-81
2023/01/02 08:30:06;;;;;;;0.30;0.30;;;;;;;;;;5011078;28;20488;-81
2023/01/02 08:32:41;;;;;;;5.53;4.68;;;;;;;;;;5033071;28;20480;-80
2023/01/02 08:35:08;;;;;;;2.47;2.28;;;;;;;;;;5036168;28;20024;-79
2023/01/02 08:37:33;;;;;;;5.70;5.30;;;;;;;;;;5042157;28;20041;-81
2023/01/02 08:39:59;;;;;;;0.93;0.93;;;;;;;;;;5049163;28;20460;-79
2023/01/02 08:42:24;;;;;;;0.20;0.20;;;;;;;;;;5049541;28;20066;-79
2023/01/02 08:44:50;;;;;;;0.38;0.38;;;;;;;;;;5049671;28;20021;-78
2023/01/02 08:47:15;;;;;;;0.52;0.52;;;;;;;;;;5045946;28;20025;-77
2023/01/02 08:49:41;;;;;;;1.00;0.90;;;;;;;;;;5049357;28;20017;-78
2023/01/02 08:52:06;;;;;;;0.10;0.10;;;;;;;;;;5049779;28;20448;-79
2023/01/02 08:54:32;;;;;;;0.52;0.52;;;;;;;;;;5031314;28;20021;-77
2023/01/02 08:56:57;;;;;;;0.17;0.17;;;;;;;;;;5031840;28;20029;-78
2023/01/02 08:59:23;;;;;;;0.10;0.10;;;;;;;;;;5049205;28;20044;-77
2023/01/02 09:01:49;;;;;;;0.30;0.30;;;;;;;;;;5049148;28;20028;-78
2023/01/02 09:04:14;;;;;;;0.20;0.20;;;;;;;;;;5031589;28;20025;-79
2023/01/02 09:06:41;;;;;;;0.10;0.10;;;;;;;;;;5049476;28;20072;-79
2023/01/02 09:09:06;;;;;;;8.07;5.18;;;;;;;;;;5049129;28;20051;-78
2023/01/02 09:11:34;;;;;;;1.95;1.85;;;;;;;;;;5049034;28;20105;-77
2023/01/02 09:14:00;;;;;;;0.17;0.17;;;;;;;;;;5040721;28;20096;-78
2023/01/02 09:16:25;;;;;;;0.20;0.20;;;;;;;;;;5049278;28;20413;-77
2023/01/02 09:18:51;;;;;;;0.30;0.30;;;;;;;;;;5048996;28;20098;-78
2023/01/02 09:21:16;;;;;;;0.40;0.40;;;;;;;;;;5022860;28;20453;-79
2023/01/02 09:23:42;;;;;;;0.10;0.10;;;;;;;;;;5048143;28;20016;-78
2023/01/02 09:26:09;;;;;;;0.10;0.10;;;;;;;;;;5030367;28;20021;-79
2023/01/02 09:28:35;;;;;;;1.02;0.88;;;;;;;;;;5048541;28;21038;-79
2023/01/02 09:31:07;;;;;;;0.43;0.43;;;;;;;;;;5030831;28;20025;-78
2023/01/02 09:33:33;;;;;;;0.10;0.10;;;;;;;;;;5027982;28;20055;-77
2023/01/02 09:36:02;;;;;;;1.15;1.08;;;;;;;;;;5028799;28;20091;-77
2023/01/02 09:38:27;;;;;;;0.20;0.20;;;;;;;;;;5029220;28;20492;-78
2023/01/02 09:40:53;;;;;;;0.22;0.22;;;;;;;;;;5029657;28;20029;-77
2023/01/02 09:43:32;;;;;;;0.30;0.30;;;;;;;;;;5030894;28;20029;-77
2023/01/02 09:45:59;;;;;;;0.10;0.10;;;;;;;;;;5020144;28;20480;-78
2023/01/02 09:48:27;;;;;;;0.55;0.55;;;;;;;;;;5028280;28;20061;-77
2023/01/02 09:50:53;;;;;;;0.15;0.15;;;;;;;;;;5044439;28;20021;-77
2023/01/02 09:53:19;;;;;;;1.17;1.17;;;;;;;;;;5027008;28;20041;-78
2023/01/02 09:56:03;;;;;;;0.50;0.50;;;;;;;;;;5031149;28;20113;-78
2023/01/02 09:58:31;;;;;;;0.10;0.10;;;;;;;;;;5029404;28;20044;-78
2023/01/02 10:00:58;;;;;;;0.60;0.60;;;;;;;;;;5009848;28;20469;-77
2023/01/02 10:03:35;;;;;;;0.70;0.70;;;;;;;;;;5022732;28;20025;-78
2023/01/02 10:06:27;;;;;;;0.20;0.20;;;;;;;;;;5032696;28;20116;-77
2023/01/02 10:09:11;;;;;;;1.08;1.08;;;;;;;;;;5023790;28;20099;-81
2023/01/02 10:11:45;;;;;;;1.50;1.40;;;;;;;;;;5028553;28;20369;-78
2023/01/02 10:14:11;;;;;;;1.10;1.10;;;;;;;;;;5028411;28;20042;-78
2023/01/02 10:16:40;;;;;;;0.10;0.10;;;;;;;;;;5029538;28;20093;-77
2023/01/02 10:19:08;;;;;;;1.13;1.13;;;;;;;;;;5029457;28;20030;-74
2023/01/02 10:21:35;;;;;;;0.10;0.10;;;;;;;;;;5027521;28;20449;-77
2023/01/02 10:24:19;;;;;;;0.90;0.90;;;;;;;;;;4993878;28;20464;-77
2023/01/02 10:26:47;;;;;;;1.65;1.55;;;;;;;;;;4989444;28;20039;-77
2023/01/02 10:29:13;;;;;;;0.10;0.10;;;;;;;;;;5039532;28;20112;-77
2023/01/02 10:31:39;;;;;;;0.10;0.10;;;;;;;;;;5033873;28;20096;-76
2023/01/02 10:34:07;;;;;;;18.15;8.40;;;;;;;;;;5020374;28;20025;-77
2023/01/02 10:36:39;;;;;;;0.23;0.23;;;;;;;;;;5025882;28;20076;-77
2023/01/02 10:39:07;;;;;;;0.20;0.20;;;;;;;;;;5009567;28;20125;-77
2023/01/02 10:41:32;;;;;;;0.20;0.20;;;;;;;;;;5005812;28;20052;-76
2023/01/02 10:44:00;;;;;;;2.72;1.65;;;;;;;;;;5007491;28;20030;-77
2023/01/02 10:46:35;;;;;;;0.13;0.13;;;;;;;;;;5006323;28;20358;-77
2023/01/02 10:49:06;;;;;;;0.55;0.55;;;;;;;;;;5007968;28;20481;-77
2023/01/02 10:51:31;;;;;;;1.60;1.50;;;;;;;;;;5003385;28;20030;-78
2023/01/02 10:54:00;;;;;;;0.50;0.50;;;;;;;;;;4971351;28;20026;-77
2023/01/02 10:56:29;;;;;;;0.20;0.20;;;;;;;;;;4989748;28;20470;-78
2023/01/02 10:58:54;;;;;;;0.30;0.30;;;;;;;;;;4989364;28;20067;-77
2023/01/02 11:01:21;;;;;;;0.20;0.20;;;;;;;;;;4987171;28;20061;-76
2023/01/02 11:03:47;;;;;;;0.65;0.65;;;;;;;;;;5003552;28;20343;-76
2023/01/02 11:06:21;;;;;;;0.10;0.10;;;;;;;;;;5010851;28;20072;-76
2023/01/02 11:08:55;;;;;;;1.88;1.73;;;;;;;;;;5011032;28;20354;-77
2023/01/02 11:11:22;;;;;;;0.32;0.32;;;;;;;;;;5014875;28;20029;-76
2023/01/02 11:13:50;;;;;;;0.20;0.20;;;;;;;;;;5032167;28;20112;-78
2023/01/02 11:16:17;;;;;;;0.77;0.77;;;;;;;;;;5032266;28;20025;-76
2023/01/02 11:18:52;;;;;;;0.20;0.20;;;;;;;;;;5014047;28;20022;-76
2023/01/02 11:21:26;;;;;;;0.20;0.20;;;;;;;;;;5032410;28;20489;-77
2023/01/02 11:23:56;;;;;;;0.88;0.88;;;;;;;;;;5031971;28;20037;-76
2023/01/02 11:26:23;;;;;;;0.63;0.55;;;;;;;;;;5032168;28;20075;-77
2023/01/02 11:28:50;;;;;;;0.20;0.20;;;;;;;;;;5032627;28;20036;-76
2023/01/02 11:31:16;;;;;;;0.20;0.20;;;;;;;;;;5014267;28;20020;-76
2023/01/02 11:33:42;;;;;;;0.30;0.30;;;;;;;;;;5031758;28;20025;-76
2023/01/02 11:36:11;;;;;;;43.38;14.10;;;;;;;;;;5032079;28;20169;-77
2023/01/02 11:38:39;;;;;;;0.20;0.20;;;;;;;;;;5031508;28;20080;-77
2023/01/02 11:41:09;;;;;;;0.20;0.20;;;;;;;;;;5031639;28;20508;-76
2023/01/02 11:43:48;;;;;;;0.25;0.25;;;;;;;;;;5031860;28;20112;-76
2023/01/02 11:46:20;;;;;;;0.20;0.20;;;;;;;;;;5014439;28;20376;-76
2023/01/02 11:48:46;;;;;;;0.20;0.20;;;;;;;;;;5031831;28;20105;-76
2023/01/02 11:51:15;;;;;;;0.20;0.20;;;;;;;;;;5014000;28;20123;-76
2023/01/02 11:53:44;;;;;;;6.85;1.35;;;;;;;;;;5031050;28;20385;-77
2023/01/02 11:56:13;;;;;;;0.20;0.20;;;;;;;;;;5031554;28;20029;-76
2023/01/02 11:58:46;;;;;;;0.20;0.20;;;;;;;;;;5028946;28;20552;-76
2023/01/02 12:01:18;;;;;;;1.23;0.50;;;;;;;;;;5030405;28;20048;-76
2023/01/02 12:03:43;;;;;;;0.20;0.20;;;;;;;;;;5031224;28;20025;-76
2023/01/02 12:06:20;;;;;;;0.20;0.20;;;;;;;;;;5031577;28;20208;-76
2023/01/02 12:09:04;;;;;;;0.10;0.10;;;;;;;;;;5030976;28;20037;-77
2023/01/02 12:11:29;;;;;;;0.20;0.20;;;;;;;;;;5013432;28;20037;-76
2023/01/02 12:13:58;;;;;;;0.20;0.20;;;;;;;;;;5032845;28;20045;-75
2023/01/02 12:16:23;;;;;;;3.85;3.60;;;;;;;;;;5031005;28;20025;-76
2023/01/02 12:18:48;;;;;;;0.17;0.17;;;;;;;;;;5030737;28;20361;-74
2023/01/02 12:21:29;;;;;;;0.43;0.43;;;;;;;;;;5031084;28;20372;-75
2023/01/02 12:23:55;;;;;;;0.22;0.22;;;;;;;;;;5030368;28;20526;-76
2023/01/02 12:26:27;;;;;;;0.20;0.20;;;;;;;;;;5030577;28;20108;-76
2023/01/02 12:29:01;;;;;;;0.20;0.20;;;;;;;;;;5031052;28;20025;-76
2023/01/02 12:31:28;;;;;;;0.20;0.20;;;;;;;;;;5029832;28;20396;-76
2023/01/02 12:33:56;;;;;;;0.80;0.80;;;;;;;;;;5029486;28;20104;-76
2023/01/02 12:36:31;;;;;;;0.43;0.43;;;;;;;;;;5049480;28;20040;-76
2023/01/02 12:38:56;;;;;;;1.55;1.45;;;;;;;;;;5034341;28;20045;-76
2023/01/02 12:41:28;;;;;;;0.28;0.28;;;;;;;;;;5028960;28;20040;-76
2023/01/02 12:43:59;;;;;;;0.20;0.20;;;;;;;;;;5030061;28;20075;-76
2023/01/02 12:46:45;;;;;;;2.90;2.70;;;;;;;;;;5030054;28;20028;-77
2023/01/02 12:49:21;;;;;;;0.20;0.20;;;;;;;;;;5030362;28;20021;-75
2023/01/02 12:52:05;;;;;;;0.30;0.30;;;;;;;;;;5030036;28;20064;-76
2023/01/02 12:54:30;;;;;;;0.20;0.20;;;;;;;;;;5030149;28;20022;-76
2023/01/02 12:56:59;;;;;;;0.55;0.55;;;;;;;;;;5030421;28;20040;-75
2023/01/02 12:59:24;;;;;;;0.40;0.40;;;;;;;;;;5013001;28;20029;-76
2023/01/02 13:01:54;;;;;;;1.08;0.65;;;;;;;;;;5029986;28;20025;-75
2023/01/02 13:04:19;;;;;;;1.75;1.40;;;;;;;;;;5028160;28;20036;-76
2023/01/02 13:06:47;;;;;;;0.77;0.77;;;;;;;;;;5029987;28;20048;-76
2023/01/02 13:09:19;;;;;;;0.20;0.20;;;;;;;;;;5029852;28;20026;-76
2023/01/02 13:11:52;;;;;;;0.57;0.57;;;;;;;;;;5027280;28;20461;-76
2023/01/02 13:14:18;;;;;;;0.57;0.30;;;;;;;;;;4995387;28;20026;-76
2023/01/02 13:16:59;;;;;;;0.20;0.20;;;;;;;;;;5009639;28;20041;-76
2023/01/02 13:19:58;;;;;;;0.20;0.20;;;;;;;;;;5009058;28;20049;-76
2023/01/02 13:22:49;;;;;;;0.50;0.50;;;;;;;;;;4954698;28;20066;-76
2023/01/02 13:25:16;;;;;;;0.28;0.28;;;;;;;;;;4992832;28;20037;-76
2023/01/02 13:27:43;;;;;;;0.68;0.68;;;;;;;;;;5006686;28;20034;-76
2023/01/02 13:30:27;;;;;;;0.30;0.30;;;;;;;;;;5009816;28;20026;-76
2023/01/02 13:32:55;;;;;;;0.20;0.20;;;;;;;;;;5010136;28;20022;-77
2023/01/02 13:35:21;;;;;;;9.48;4.57;;;;;;;;;;5007547;28;20105;-74
2023/01/02 13:37:47;;;;;;;0.60;0.60;;;;;;;;;;5007626;28;20152;-75
2023/01/02 13:40:26;;;;;;;0.60;0.50;;;;;;;;;;5012951;28;20048;-75
2023/01/02 13:42:58;;;;;;;0.30;0.30;;;;;;;;;;5008775;28;20025;-75
2023/01/02 13:45:28;;;;;;;0.30;0.30;;;;;;;;;;5025834;28;20088;-75
2023/01/02 13:48:01;;;;;;;0.50;0.50;;;;;;;;;;5029417;28;20372;-75
2023/01/02 13:50:36;;;;;;;2.75;2.55;;;;;;;;;;5015771;28;20544;-75
2023/01/02 13:53:22;;;;;;;0.28;0.28;;;;;;;;;;5009276;28;20076;-75
2023/01/02 13:56:01;;;;;;;0.50;0.50;;;;;;;;;;5027446;28;20022;-75
2023/01/02 13:58:36;;;;;;;0.20;0.20;;;;;;;;;;5026411;28;20018;-74
2023/01/02 14:01:22;;;;;;;0.20;0.20;;;;;;;;;;5009479;28;20839;-74
2023/01/02 14:04:06;;;;;;;0.22;0.22;;;;;;;;;;5026157;28;20768;-74
2023/01/02 14:06:34;;;;;;;0.80;0.80;;;;;;;;;;5010199;28;20039;-74
2023/01/02 14:09:03;;;;;;;0.20;0.20;;;;;;;;;;5027523;28;20029;-73
2023/01/02 14:11:31;;;;;;;0.20;0.20;;;;;;;;;;5028192;28;20026;-74
2023/01/02 14:13:57;;;;;;;0.30;0.30;;;;;;;;;;5027433;28;20025;-74
2023/01/02 14:16:32;;;;;;;0.65;0.65;;;;;;;;;;5028715;28;20032;-74
2023/01/02 14:19:01;;;;;;;0.30;0.30;;;;;;;;;;5011551;28;20079;-74
2023/01/02 14:21:36;;;;;;;0.30;0.30;;;;;;;;;;5028580;28;20023;-75
2023/01/02 14:24:03;;;;;;;1.48;1.13;;;;;;;;;;5029131;28;20026;-74
2023/01/02 14:26:33;;;;;;;3.00;1.67;;;;;;;;;;5028936;28;20018;-74
2023/01/02 14:28:59;;;;;;;0.57;0.57;;;;;;;;;;5029624;28;20033;-75
2023/01/02 14:31:32;;;;;;;0.25;0.25;;;;;;;;;;5011660;28;20081;-74
2023/01/02 14:33:58;;;;;;;0.20;0.20;;;;;;;;;;4993793;28;20029;-75
2023/01/02 14:36:38;;;;;;;0.20;0.20;;;;;;;;;;5024437;28;20025;-76
2023/01/02 14:39:05;;;;;;;0.20;0.20;;;;;;;;;;5051610;28;20059;-76
2023/01/02 14:44:42;;;;;;;0.20;0.20;;;;;;;;;;5017721;28;20060;-75
2023/01/02 14:47:12;;;;;;;0.20;0.20;;;;;;;;;;5029991;28;20044;-75
2023/01/02 14:49:38;;;;;;;0.65;0.65;;;;;;;;;;4995500;28;20032;-75
2023/01/02 14:52:10;;;;;;;0.20;0.20;;;;;;;;;;5028950;28;20021;-76
2023/01/02 14:54:45;;;;;;;0.63;0.63;;;;;;;;;;5030719;28;20506;-76
2023/01/02 14:57:30;;;;;;;0.20;0.20;;;;;;;;;;5030620;28;20040;-76
2023/01/02 14:59:57;;;;;;;0.20;0.20;;;;;;;;;;5019214;28;20123;-76